Time;durP1;ratioP1;P1;durP2;ratioP2;P2;SDS_P1;SDS_P2;PMS_P1;PMS_P2;Temp;Humidity;BMP_temperature;BMP_pressure;BME280_temperature;BME280_humidity;BME280_pressure;Samples;Min_cycle;Max_cycle;Signal;HPM_P1;HPM_P2
2021/11/23 00:02:12;;;;;;;3.97;3.67;;;;;;;;;;4985434;28;24457;-65
2021/11/23 00:04:37;;;;;;;4.10;3.80;;;;;;;;;;4983864;28;25117;-66
2021/11/23 00:07:03;;;;;;;4.37;4.00;;;;;;;;;;4982081;28;24999;-65
2021/11/23 00:09:28;;;;;;;3.63;3.33;;;;;;;;;;4986461;28;24412;-65
2021/11/23 00:11:53;;;;;;;4.33;3.93;;;;;;;;;;4983616;28;24518;-65
2021/11/23 00:14:18;;;;;;;4.07;3.67;;;;;;;;;;4983033;28;25246;-65
2021/11/23 00:16:43;;;;;;;4.13;3.73;;;;;;;;;;4985667;28;24413;-65
2021/11/23 00:19:08;;;;;;;4.60;4.20;;;;;;;;;;4989375;28;24423;-65
2021/11/23 00:21:33;;;;;;;4.50;4.10;;;;;;;;;;4983945;28;24536;-65
2021/11/23 00:23:59;;;;;;;4.00;3.70;;;;;;;;;;4982507;28;25236;-65
2021/11/23 00:26:25;;;;;;;5.88;4.75;;;;;;;;;;4974885;28;24475;-65
2021/11/23 00:28:50;;;;;;;4.60;4.20;;;;;;;;;;4986794;28;24484;-65
2021/11/23 00:31:15;;;;;;;4.35;4.05;;;;;;;;;;4986139;28;24409;-64
2021/11/23 00:33:42;;;;;;;4.20;3.80;;;;;;;;;;4984253;28;24416;-64
2021/11/23 00:36:08;;;;;;;3.90;3.60;;;;;;;;;;4985948;28;24421;-64
2021/11/23 00:38:34;;;;;;;3.90;3.60;;;;;;;;;;4980954;28;24485;-64
2021/11/23 00:40:59;;;;;;;4.23;3.83;;;;;;;;;;4993111;28;25042;-64
2021/11/23 00:43:24;;;;;;;4.00;3.70;;;;;;;;;;4983528;28;24844;-64
2021/11/23 00:45:49;;;;;;;4.47;4.07;;;;;;;;;;4986488;28;24429;-63
2021/11/23 00:48:14;;;;;;;4.20;3.90;;;;;;;;;;4982107;28;25218;-66
2021/11/23 00:50:40;;;;;;;4.50;4.20;;;;;;;;;;4982010;28;24447;-65
2021/11/23 00:53:05;;;;;;;4.50;4.13;;;;;;;;;;4982883;28;24776;-66
2021/11/23 00:55:31;;;;;;;4.32;3.92;;;;;;;;;;4984097;28;24561;-65
2021/11/23 00:57:57;;;;;;;4.30;4.00;;;;;;;;;;4985527;28;24452;-66
2021/11/23 01:00:22;;;;;;;4.10;3.80;;;;;;;;;;4981051;28;24452;-63
2021/11/23 01:02:47;;;;;;;4.10;3.80;;;;;;;;;;4981202;28;24420;-63
2021/11/23 01:05:12;;;;;;;4.25;3.95;;;;;;;;;;4983222;28;24943;-63
2021/11/23 01:07:37;;;;;;;4.30;4.00;;;;;;;;;;4984389;28;24409;-63
2021/11/23 01:10:03;;;;;;;4.30;4.00;;;;;;;;;;4985380;28;24428;-64
2021/11/23 01:12:28;;;;;;;4.20;3.90;;;;;;;;;;4992232;28;24560;-64
2021/11/23 01:14:53;;;;;;;3.90;3.60;;;;;;;;;;4981835;28;24764;-65
2021/11/23 01:17:19;;;;;;;4.00;3.70;;;;;;;;;;4980603;28;24507;-65
2021/11/23 01:19:44;;;;;;;4.30;4.00;;;;;;;;;;4983968;28;24420;-65
2021/11/23 01:22:10;;;;;;;4.32;4.03;;;;;;;;;;4988100;28;24420;-65
2021/11/23 01:24:35;;;;;;;4.10;3.80;;;;;;;;;;4981599;28;24504;-65
2021/11/23 01:27:00;;;;;;;4.43;4.13;;;;;;;;;;4981405;28;24437;-65
2021/11/23 01:29:26;;;;;;;4.50;4.20;;;;;;;;;;4983287;28;24504;-65
2021/11/23 01:31:51;;;;;;;4.17;3.87;;;;;;;;;;4975887;28;24401;-65
2021/11/23 01:34:19;;;;;;;4.63;4.23;;;;;;;;;;4985027;28;24413;-66
2021/11/23 01:36:45;;;;;;;4.40;4.10;;;;;;;;;;4982434;28;24483;-65
2021/11/23 01:39:10;;;;;;;4.40;4.10;;;;;;;;;;4978756;28;24472;-65
2021/11/23 01:41:35;;;;;;;4.50;4.20;;;;;;;;;;4980208;28;24522;-64
2021/11/23 01:44:01;;;;;;;4.10;3.80;;;;;;;;;;4984786;28;24417;-65
2021/11/23 01:46:26;;;;;;;4.30;4.00;;;;;;;;;;4982957;28;24421;-65
2021/11/23 01:48:51;;;;;;;4.20;3.90;;;;;;;;;;4982674;28;24452;-65
2021/11/23 01:51:16;;;;;;;4.50;4.20;;;;;;;;;;4979866;28;24512;-67
2021/11/23 01:53:42;;;;;;;4.20;3.90;;;;;;;;;;4980496;28;24425;-65
2021/11/23 01:56:07;;;;;;;4.07;3.78;;;;;;;;;;4973622;28;24989;-65
2021/11/23 01:58:32;;;;;;;3.90;3.70;;;;;;;;;;4983108;28;24455;-65
2021/11/23 02:00:57;;;;;;;3.90;3.70;;;;;;;;;;4983202;28;24994;-66
2021/11/23 02:03:23;;;;;;;3.80;3.60;;;;;;;;;;4981072;28;24958;-65
2021/11/23 02:05:48;;;;;;;4.33;4.03;;;;;;;;;;4995472;28;24492;-67
2021/11/23 02:08:13;;;;;;;4.63;4.22;;;;;;;;;;4996666;28;24452;-65
2021/11/23 02:10:40;;;;;;;4.70;4.20;;;;;;;;;;4992314;28;24479;-65
2021/11/23 02:13:06;;;;;;;5.20;4.80;;;;;;;;;;4976249;28;24402;-65
2021/11/23 02:15:34;;;;;;;4.43;4.13;;;;;;;;;;4981324;28;24591;-65
2021/11/23 02:17:59;;;;;;;5.60;5.20;;;;;;;;;;4983209;28;24416;-65
2021/11/23 02:20:25;;;;;;;5.20;4.80;;;;;;;;;;4982387;28;24768;-65
2021/11/23 02:22:51;;;;;;;5.10;4.70;;;;;;;;;;4984832;28;24449;-66
2021/11/23 02:25:17;;;;;;;5.30;4.90;;;;;;;;;;4984059;28;24841;-65
2021/11/23 02:27:46;;;;;;;5.50;5.10;;;;;;;;;;4981451;28;24653;-66
2021/11/23 02:30:11;;;;;;;5.40;4.90;;;;;;;;;;4980392;28;24436;-64
2021/11/23 02:32:41;;;;;;;4.77;4.47;;;;;;;;;;4981927;28;24405;-64
2021/11/23 02:35:07;;;;;;;4.85;4.55;;;;;;;;;;4982295;28;25009;-64
2021/11/23 02:37:32;;;;;;;4.82;4.53;;;;;;;;;;4981954;28;24478;-64
2021/11/23 02:39:57;;;;;;;4.70;4.30;;;;;;;;;;4983939;28;24511;-65
2021/11/23 02:42:22;;;;;;;5.20;4.70;;;;;;;;;;4982286;28;24511;-65
2021/11/23 02:44:48;;;;;;;5.10;4.60;;;;;;;;;;4982437;28;24417;-65
2021/11/23 02:47:13;;;;;;;4.40;4.10;;;;;;;;;;4979934;28;24526;-65
2021/11/23 02:49:39;;;;;;;4.93;4.55;;;;;;;;;;4983456;28;24473;-65
2021/11/23 02:52:08;;;;;;;4.80;4.40;;;;;;;;;;4983931;28;24406;-65
2021/11/23 02:54:34;;;;;;;4.88;4.47;;;;;;;;;;4979696;28;25299;-64
2021/11/23 02:56:59;;;;;;;4.82;4.43;;;;;;;;;;4982070;28;24625;-65
2021/11/23 02:59:25;;;;;;;5.25;4.85;;;;;;;;;;4977913;28;24416;-64
2021/11/23 03:01:50;;;;;;;4.62;4.24;;;;;;;;;;4981771;28;24520;-64
2021/11/23 03:04:16;;;;;;;4.60;4.30;;;;;;;;;;4982980;28;24417;-64
2021/11/23 03:06:43;;;;;;;5.05;4.60;;;;;;;;;;4980722;28;25346;-65
2021/11/23 03:09:08;;;;;;;4.97;4.57;;;;;;;;;;4979908;28;24420;-64
2021/11/23 03:11:33;;;;;;;4.60;4.30;;;;;;;;;;4979365;28;24416;-65
2021/11/23 03:13:58;;;;;;;5.00;4.50;;;;;;;;;;4981144;28;24491;-65
2021/11/23 03:16:23;;;;;;;5.50;5.10;;;;;;;;;;4981395;28;24424;-64
2021/11/23 03:18:48;;;;;;;5.83;5.33;;;;;;;;;;4985626;28;24460;-64
2021/11/23 03:21:14;;;;;;;4.97;4.47;;;;;;;;;;4981520;28;24997;-65
2021/11/23 03:23:39;;;;;;;5.55;4.80;;;;;;;;;;4982861;28;24417;-64
2021/11/23 03:26:05;;;;;;;4.90;4.43;;;;;;;;;;4984170;28;24456;-64
2021/11/23 03:28:30;;;;;;;5.13;4.63;;;;;;;;;;4984892;28;25130;-64
2021/11/23 03:30:55;;;;;;;4.70;4.30;;;;;;;;;;4986914;28;24601;-64
2021/11/23 03:33:21;;;;;;;4.57;4.20;;;;;;;;;;4987652;28;24495;-64
2021/11/23 03:35:46;;;;;;;5.03;4.63;;;;;;;;;;4983874;28;24508;-65
2021/11/23 03:38:12;;;;;;;4.93;4.60;;;;;;;;;;4984637;28;24959;-65
2021/11/23 03:40:38;;;;;;;4.70;4.30;;;;;;;;;;4985713;28;24459;-64
2021/11/23 03:43:04;;;;;;;5.00;4.70;;;;;;;;;;4987103;28;24423;-64
2021/11/23 03:45:30;;;;;;;4.70;4.30;;;;;;;;;;4984882;28;25030;-64
2021/11/23 03:47:55;;;;;;;5.90;5.40;;;;;;;;;;4985953;28;24475;-64
2021/11/23 03:50:21;;;;;;;4.78;4.38;;;;;;;;;;4985523;28;24981;-65
2021/11/23 03:52:47;;;;;;;4.95;4.45;;;;;;;;;;4984816;28;24483;-65
2021/11/23 03:55:17;;;;;;;4.45;4.15;;;;;;;;;;4985291;28;24478;-65
2021/11/23 03:57:42;;;;;;;4.50;4.10;;;;;;;;;;4984306;28;25565;-65
2021/11/23 04:00:08;;;;;;;4.87;4.43;;;;;;;;;;4984330;28;24483;-65
2021/11/23 04:02:35;;;;;;;4.60;4.22;;;;;;;;;;4982389;28;21345;-65
2021/11/23 04:05:00;;;;;;;5.10;4.80;;;;;;;;;;4985105;28;24419;-65
2021/11/23 04:07:25;;;;;;;4.70;4.40;;;;;;;;;;4984222;28;24452;-65
2021/11/23 04:09:50;;;;;;;4.65;4.35;;;;;;;;;;4985610;28;24881;-65
2021/11/23 04:12:16;;;;;;;4.83;4.53;;;;;;;;;;4986233;28;24421;-65
2021/11/23 04:14:41;;;;;;;4.40;4.10;;;;;;;;;;4982006;28;24470;-65
2021/11/23 04:17:07;;;;;;;5.37;4.97;;;;;;;;;;4982652;28;24423;-65
2021/11/23 04:19:32;;;;;;;4.20;3.90;;;;;;;;;;4973521;28;24520;-65
2021/11/23 04:21:57;;;;;;;4.40;4.10;;;;;;;;;;4986370;28;24830;-65
2021/11/23 04:24:23;;;;;;;5.30;4.90;;;;;;;;;;4985781;28;24420;-63
2021/11/23 04:26:48;;;;;;;5.22;4.82;;;;;;;;;;4984990;28;25296;-63
2021/11/23 04:29:13;;;;;;;5.00;4.60;;;;;;;;;;4980787;28;24459;-63
2021/11/23 04:31:38;;;;;;;4.60;4.30;;;;;;;;;;4979934;28;24415;-64
2021/11/23 04:34:03;;;;;;;4.47;4.18;;;;;;;;;;4981847;28;24521;-64
2021/11/23 04:36:29;;;;;;;5.30;4.90;;;;;;;;;;4983848;28;24444;-64
2021/11/23 04:38:54;;;;;;;4.63;4.33;;;;;;;;;;4984382;28;24432;-65
2021/11/23 04:41:19;;;;;;;4.83;4.43;;;;;;;;;;4982893;28;24417;-64
2021/11/23 04:43:44;;;;;;;4.77;4.37;;;;;;;;;;4982409;28;24448;-63
2021/11/23 04:46:09;;;;;;;4.60;4.20;;;;;;;;;;4984433;28;24532;-64
2021/11/23 04:48:35;;;;;;;4.82;4.32;;;;;;;;;;4978825;28;24464;-63
2021/11/23 04:51:01;;;;;;;4.60;4.30;;;;;;;;;;4985493;28;24489;-65
2021/11/23 04:53:26;;;;;;;4.68;4.30;;;;;;;;;;4991469;28;24423;-64
2021/11/23 04:55:51;;;;;;;4.70;4.30;;;;;;;;;;4983746;28;24427;-64
2021/11/23 04:58:16;;;;;;;4.80;4.40;;;;;;;;;;4985227;28;25049;-65
2021/11/23 05:00:42;;;;;;;6.17;5.67;;;;;;;;;;4984186;28;24809;-65
2021/11/23 05:03:07;;;;;;;6.20;5.60;;;;;;;;;;4991611;28;24980;-65
2021/11/23 05:05:32;;;;;;;5.30;4.90;;;;;;;;;;4985783;28;24455;-64
2021/11/23 05:07:57;;;;;;;5.30;4.90;;;;;;;;;;4984203;28;24425;-64
2021/11/23 05:10:22;;;;;;;5.53;5.03;;;;;;;;;;4983314;28;24500;-65
2021/11/23 05:12:47;;;;;;;5.78;5.28;;;;;;;;;;4983157;28;24424;-64
2021/11/23 05:15:13;;;;;;;5.17;4.67;;;;;;;;;;4992939;28;24420;-64
2021/11/23 05:17:38;;;;;;;4.55;4.25;;;;;;;;;;4981281;28;24460;-64
2021/11/23 05:20:05;;;;;;;4.70;4.30;;;;;;;;;;4971808;28;24780;-65
2021/11/23 05:22:30;;;;;;;5.38;4.97;;;;;;;;;;4983064;28;24424;-64
2021/11/23 05:24:56;;;;;;;4.53;4.23;;;;;;;;;;4985587;28;25316;-64
2021/11/23 05:27:21;;;;;;;5.10;4.70;;;;;;;;;;4983090;28;24433;-65
2021/11/23 05:29:46;;;;;;;5.47;5.07;;;;;;;;;;4976641;28;25033;-64
2021/11/23 05:32:11;;;;;;;5.20;4.80;;;;;;;;;;4983187;28;24436;-64
2021/11/23 05:34:36;;;;;;;5.72;5.20;;;;;;;;;;4989421;28;24499;-64
2021/11/23 05:37:01;;;;;;;5.43;4.78;;;;;;;;;;4990800;28;24416;-64
2021/11/23 05:39:27;;;;;;;4.60;4.30;;;;;;;;;;4983115;28;24417;-65
2021/11/23 05:41:52;;;;;;;5.30;4.90;;;;;;;;;;4977367;28;25314;-64
2021/11/23 05:44:17;;;;;;;4.60;4.20;;;;;;;;;;4982586;28;24466;-64
2021/11/23 05:46:42;;;;;;;4.97;4.67;;;;;;;;;;4995186;28;24432;-64
2021/11/23 05:49:08;;;;;;;5.00;4.60;;;;;;;;;;4988160;28;24413;-64
2021/11/23 05:51:33;;;;;;;5.05;4.65;;;;;;;;;;4982579;28;24433;-64
2021/11/23 05:53:58;;;;;;;6.70;5.53;;;;;;;;;;4984658;28;24523;-64
2021/11/23 05:56:23;;;;;;;5.60;5.10;;;;;;;;;;4985610;28;24432;-64
2021/11/23 05:58:49;;;;;;;4.80;4.40;;;;;;;;;;4984665;28;24429;-65
2021/11/23 06:01:14;;;;;;;5.35;4.85;;;;;;;;;;4993113;28;24787;-64
2021/11/23 06:03:40;;;;;;;5.10;4.70;;;;;;;;;;4984970;28;24428;-64
2021/11/23 06:06:05;;;;;;;5.60;5.10;;;;;;;;;;4984662;28;24433;-64
2021/11/23 06:08:30;;;;;;;5.75;5.25;;;;;;;;;;4985290;28;24534;-64
2021/11/23 06:10:55;;;;;;;4.70;4.40;;;;;;;;;;4980777;28;25125;-65
2021/11/23 06:13:21;;;;;;;5.00;4.60;;;;;;;;;;4979677;28;24463;-64
2021/11/23 06:15:46;;;;;;;5.27;4.93;;;;;;;;;;4985140;28;24420;-64
2021/11/23 06:18:14;;;;;;;4.95;4.55;;;;;;;;;;4996817;28;24423;-64
2021/11/23 06:20:39;;;;;;;4.85;4.55;;;;;;;;;;4979403;28;24417;-64
2021/11/23 06:23:04;;;;;;;5.27;4.87;;;;;;;;;;4981402;28;24424;-63
2021/11/23 06:25:30;;;;;;;5.83;5.33;;;;;;;;;;4982017;28;24548;-64
2021/11/23 06:27:55;;;;;;;5.70;4.90;;;;;;;;;;4983425;28;25016;-64
2021/11/23 06:30:21;;;;;;;5.40;5.00;;;;;;;;;;4979337;28;24970;-64
2021/11/23 06:32:46;;;;;;;6.70;6.10;;;;;;;;;;4978363;28;25110;-64
2021/11/23 06:35:11;;;;;;;6.80;6.30;;;;;;;;;;4982068;28;24421;-64
2021/11/23 06:37:36;;;;;;;5.70;5.20;;;;;;;;;;4981838;28;24807;-64
2021/11/23 06:40:02;;;;;;;6.23;5.00;;;;;;;;;;4983083;28;24424;-64
2021/11/23 06:42:27;;;;;;;5.70;5.20;;;;;;;;;;4976523;28;24448;-64
2021/11/23 06:44:53;;;;;;;6.30;5.80;;;;;;;;;;4979485;28;24421;-64
2021/11/23 06:47:18;;;;;;;7.45;6.95;;;;;;;;;;4983111;28;24486;-64
2021/11/23 06:49:43;;;;;;;7.30;6.70;;;;;;;;;;4986910;28;24989;-64
2021/11/23 06:52:08;;;;;;;6.10;5.50;;;;;;;;;;4980874;28;24439;-64
2021/11/23 06:54:34;;;;;;;6.60;6.00;;;;;;;;;;4978690;28;24421;-64
2021/11/23 06:56:59;;;;;;;6.33;5.83;;;;;;;;;;4979973;28;24500;-64
2021/11/23 06:59:24;;;;;;;5.97;5.47;;;;;;;;;;4980502;28;24396;-65
2021/11/23 07:01:49;;;;;;;6.50;5.93;;;;;;;;;;4983051;28;24737;-65
2021/11/23 07:04:15;;;;;;;6.30;5.70;;;;;;;;;;4981546;28;24982;-65
2021/11/23 07:06:40;;;;;;;5.45;5.05;;;;;;;;;;4976485;28;24979;-65
2021/11/23 07:09:06;;;;;;;6.13;5.57;;;;;;;;;;4982717;28;24413;-65
2021/11/23 07:11:31;;;;;;;5.22;4.82;;;;;;;;;;4984192;28;25023;-65
2021/11/23 07:13:57;;;;;;;6.60;6.00;;;;;;;;;;4980404;28;25073;-65
2021/11/23 07:16:22;;;;;;;5.70;5.30;;;;;;;;;;4981820;28;24417;-65
2021/11/23 07:18:47;;;;;;;5.50;5.00;;;;;;;;;;4991814;28;24417;-65
2021/11/23 07:21:12;;;;;;;6.30;5.70;;;;;;;;;;4984259;28;24413;-66
2021/11/23 07:23:38;;;;;;;5.53;5.13;;;;;;;;;;4977977;28;24421;-65
2021/11/23 07:26:03;;;;;;;5.10;4.60;;;;;;;;;;4984205;28;24435;-66
2021/11/23 07:28:28;;;;;;;7.25;6.50;;;;;;;;;;4976336;28;24486;-66
2021/11/23 07:30:54;;;;;;;6.50;5.78;;;;;;;;;;4986684;28;24954;-65
2021/11/23 07:33:19;;;;;;;6.20;5.68;;;;;;;;;;4981876;28;24506;-64
2021/11/23 07:35:45;;;;;;;5.60;5.20;;;;;;;;;;4978499;28;24876;-64
2021/11/23 07:38:10;;;;;;;6.60;6.10;;;;;;;;;;4986217;28;24424;-64
2021/11/23 07:40:35;;;;;;;7.30;6.70;;;;;;;;;;4980527;28;24405;-65
2021/11/23 07:43:00;;;;;;;9.20;8.30;;;;;;;;;;4979137;28;24820;-64
2021/11/23 07:45:25;;;;;;;9.07;8.17;;;;;;;;;;4983111;28;24420;-64
2021/11/23 07:47:51;;;;;;;9.20;8.40;;;;;;;;;;4979508;28;24575;-64
2021/11/23 07:50:16;;;;;;;9.98;8.98;;;;;;;;;;4977893;28;24415;-65
2021/11/23 07:52:42;;;;;;;9.57;8.43;;;;;;;;;;4978410;28;24990;-64
2021/11/23 07:55:08;;;;;;;8.43;7.63;;;;;;;;;;4990956;28;24925;-64
2021/11/23 07:57:34;;;;;;;7.70;7.07;;;;;;;;;;4981392;28;24640;-64
2021/11/23 07:59:59;;;;;;;8.43;7.53;;;;;;;;;;4978141;28;24729;-64
2021/11/23 08:02:24;;;;;;;6.77;6.17;;;;;;;;;;4979162;28;24509;-68
2021/11/23 08:04:49;;;;;;;6.32;5.82;;;;;;;;;;4986468;28;24413;-67
2021/11/23 08:07:14;;;;;;;7.00;6.40;;;;;;;;;;4983305;28;24536;-65
2021/11/23 08:09:39;;;;;;;8.00;7.30;;;;;;;;;;4981187;28;24413;-65
2021/11/23 08:12:05;;;;;;;8.13;7.33;;;;;;;;;;4981509;28;24420;-65
2021/11/23 08:14:30;;;;;;;6.00;5.50;;;;;;;;;;4978132;28;24451;-66
2021/11/23 08:16:56;;;;;;;7.03;6.43;;;;;;;;;;4980094;28;24416;-67
2021/11/23 08:19:21;;;;;;;7.50;6.80;;;;;;;;;;4980405;28;24417;-65
2021/11/23 08:21:47;;;;;;;6.50;6.00;;;;;;;;;;4983589;28;24424;-65
2021/11/23 08:24:12;;;;;;;6.53;5.93;;;;;;;;;;4982933;28;24413;-68
2021/11/23 08:26:39;;;;;;;6.63;6.13;;;;;;;;;;4977791;28;24533;-69
2021/11/23 08:29:04;;;;;;;8.40;7.60;;;;;;;;;;4978982;28;24888;-66
2021/11/23 08:31:29;;;;;;;9.90;8.40;;;;;;;;;;4981366;28;24443;-66
2021/11/23 08:33:54;;;;;;;13.40;12.00;;;;;;;;;;4983289;28;25081;-65
2021/11/23 08:36:19;;;;;;;8.75;7.85;;;;;;;;;;4982906;28;24444;-65
2021/11/23 08:38:46;;;;;;;7.75;7.05;;;;;;;;;;4979870;28;24424;-65
2021/11/23 08:41:11;;;;;;;7.18;6.55;;;;;;;;;;4981061;28;24432;-68
2021/11/23 08:43:36;;;;;;;6.72;6.15;;;;;;;;;;4978815;28;24787;-66
2021/11/23 08:46:02;;;;;;;8.52;7.05;;;;;;;;;;4984925;28;24444;-65
2021/11/23 08:48:27;;;;;;;7.30;6.60;;;;;;;;;;4987186;28;24413;-66
2021/11/23 08:50:53;;;;;;;6.60;6.00;;;;;;;;;;4989073;28;24979;-65
2021/11/23 08:53:18;;;;;;;7.53;6.83;;;;;;;;;;4987123;28;24413;-65
2021/11/23 08:55:43;;;;;;;7.00;6.40;;;;;;;;;;4989834;28;24417;-65
2021/11/23 08:58:09;;;;;;;6.40;5.80;;;;;;;;;;4981177;28;24588;-66
2021/11/23 09:00:35;;;;;;;6.45;5.50;;;;;;;;;;4983805;28;24416;-65
2021/11/23 09:03:00;;;;;;;6.82;6.22;;;;;;;;;;4986889;28;24499;-65
2021/11/23 09:05:28;;;;;;;5.50;5.00;;;;;;;;;;4990802;28;24498;-66
2021/11/23 09:07:53;;;;;;;5.68;5.18;;;;;;;;;;4987355;28;24443;-65
2021/11/23 09:10:25;;;;;;;6.70;6.00;;;;;;;;;;4983728;28;24405;-65
2021/11/23 09:12:52;;;;;;;6.60;6.00;;;;;;;;;;4983091;28;24417;-66
2021/11/23 09:15:18;;;;;;;6.93;5.75;;;;;;;;;;4996756;28;24444;-67
2021/11/23 09:17:43;;;;;;;6.70;6.00;;;;;;;;;;5005618;28;24456;-66
2021/11/23 09:20:10;;;;;;;6.50;6.00;;;;;;;;;;4990113;28;25225;-66
2021/11/23 09:22:36;;;;;;;7.22;6.53;;;;;;;;;;4985347;28;24440;-66
2021/11/23 09:25:01;;;;;;;7.10;6.40;;;;;;;;;;4983719;28;24975;-67
2021/11/23 09:27:26;;;;;;;5.87;5.27;;;;;;;;;;4982555;28;24425;-66
2021/11/23 09:29:51;;;;;;;6.70;5.80;;;;;;;;;;4995303;28;24827;-67
2021/11/23 09:32:17;;;;;;;5.73;5.23;;;;;;;;;;4986582;28;24413;-66
2021/11/23 09:34:42;;;;;;;5.83;5.33;;;;;;;;;;4993412;28;24419;-66
2021/11/23 09:37:08;;;;;;;6.23;5.70;;;;;;;;;;4989583;28;24593;-66
2021/11/23 09:39:33;;;;;;;5.60;5.10;;;;;;;;;;4989092;28;24925;-65
2021/11/23 09:41:58;;;;;;;5.50;5.00;;;;;;;;;;4993850;28;24460;-65
2021/11/23 09:44:25;;;;;;;6.33;4.90;;;;;;;;;;4995352;28;24409;-65
2021/11/23 09:46:51;;;;;;;5.10;4.60;;;;;;;;;;4988278;28;24514;-65
2021/11/23 09:49:16;;;;;;;4.20;3.90;;;;;;;;;;4977012;28;25299;-65
2021/11/23 09:51:41;;;;;;;4.57;4.17;;;;;;;;;;4982898;28;24879;-65
2021/11/23 09:54:07;;;;;;;4.60;4.20;;;;;;;;;;4984210;28;24433;-66
2021/11/23 09:56:33;;;;;;;5.05;4.15;;;;;;;;;;4980320;28;24545;-65
2021/11/23 09:58:59;;;;;;;4.57;4.23;;;;;;;;;;4985633;28;24417;-66
2021/11/23 10:01:25;;;;;;;5.60;4.50;;;;;;;;;;4981452;28;24508;-66
2021/11/23 10:03:51;;;;;;;4.57;4.18;;;;;;;;;;4984809;28;24405;-66
2021/11/23 10:06:19;;;;;;;5.50;4.90;;;;;;;;;;4984392;28;24843;-66
2021/11/23 10:08:45;;;;;;;4.80;4.40;;;;;;;;;;4980700;28;24416;-65
2021/11/23 10:11:11;;;;;;;8.52;7.63;;;;;;;;;;4994257;28;24424;-65
2021/11/23 10:13:46;;;;;;;8.15;7.35;;;;;;;;;;4978987;28;24421;-66
2021/11/23 10:16:12;;;;;;;8.20;6.28;;;;;;;;;;4981047;28;24487;-65
2021/11/23 10:18:37;;;;;;;6.68;5.75;;;;;;;;;;4983029;28;24429;-65
2021/11/23 10:21:04;;;;;;;5.90;5.30;;;;;;;;;;4982041;28;24433;-65
2021/11/23 10:23:31;;;;;;;9.80;5.90;;;;;;;;;;4980431;28;24431;-65
2021/11/23 10:26:01;;;;;;;6.57;5.97;;;;;;;;;;4977567;28;25017;-63
2021/11/23 10:28:28;;;;;;;6.35;5.78;;;;;;;;;;4981762;28;24409;-67
2021/11/23 10:30:53;;;;;;;6.20;5.70;;;;;;;;;;4979499;28;24440;-67
2021/11/23 10:33:19;;;;;;;6.83;6.13;;;;;;;;;;4983064;28;24453;-65
2021/11/23 10:35:45;;;;;;;6.20;5.60;;;;;;;;;;4982322;28;24496;-65
2021/11/23 10:38:11;;;;;;;5.30;4.80;;;;;;;;;;4974089;28;24413;-65
2021/11/23 10:40:37;;;;;;;4.47;4.07;;;;;;;;;;4977872;28;24393;-66
2021/11/23 10:43:07;;;;;;;4.20;3.80;;;;;;;;;;4980957;28;24512;-66
2021/11/23 10:45:39;;;;;;;5.20;4.70;;;;;;;;;;4981840;28;25029;-66
2021/11/23 10:48:05;;;;;;;5.30;4.30;;;;;;;;;;4983298;28;24942;-66
2021/11/23 10:50:30;;;;;;;3.40;3.00;;;;;;;;;;4981964;28;24421;-65
2021/11/23 10:53:01;;;;;;;5.17;3.20;;;;;;;;;;4976784;28;24423;-64
2021/11/23 10:55:29;;;;;;;3.65;2.30;;;;;;;;;;4994481;28;24446;-64
2021/11/23 10:57:55;;;;;;;3.00;2.40;;;;;;;;;;5003474;28;24400;-64
2021/11/23 11:00:21;;;;;;;2.00;1.90;;;;;;;;;;4987941;28;24428;-63
2021/11/23 11:02:46;;;;;;;2.13;1.70;;;;;;;;;;4980739;28;24864;-65
2021/11/23 11:05:14;;;;;;;4.07;2.10;;;;;;;;;;4983662;28;25082;-65
2021/11/23 11:07:39;;;;;;;2.63;2.10;;;;;;;;;;4982754;28;24435;-66
2021/11/23 11:10:05;;;;;;;2.50;2.00;;;;;;;;;;4983349;28;24758;-65
2021/11/23 11:12:31;;;;;;;3.60;2.45;;;;;;;;;;4981064;28;24420;-67
2021/11/23 11:14:57;;;;;;;4.70;2.23;;;;;;;;;;4983766;28;24995;-67
2021/11/23 11:17:24;;;;;;;2.40;2.20;;;;;;;;;;4981599;28;24974;-67
2021/11/23 11:19:51;;;;;;;3.33;2.28;;;;;;;;;;4983275;28;24430;-67
2021/11/23 11:22:21;;;;;;;4.65;2.50;;;;;;;;;;4978371;28;24978;-67
2021/11/23 11:24:55;;;;;;;2.72;2.42;;;;;;;;;;4984901;28;24831;-67
2021/11/23 11:27:38;;;;;;;2.50;2.30;;;;;;;;;;4984741;28;24587;-67
2021/11/23 11:30:22;;;;;;;2.45;2.15;;;;;;;;;;4971633;28;24437;-67
2021/11/23 11:32:51;;;;;;;2.80;2.40;;;;;;;;;;4977454;28;24413;-67
2021/11/23 11:35:20;;;;;;;4.40;2.80;;;;;;;;;;4981384;28;24424;-67
2021/11/23 11:37:46;;;;;;;3.22;2.60;;;;;;;;;;4977786;28;24701;-67
2021/11/23 11:40:19;;;;;;;2.60;2.33;;;;;;;;;;4986432;28;24413;-67
2021/11/23 11:42:46;;;;;;;3.78;2.75;;;;;;;;;;4986601;28;24421;-68
2021/11/23 11:45:13;;;;;;;4.05;2.63;;;;;;;;;;4990413;28;24828;-67
2021/11/23 11:47:38;;;;;;;4.22;3.10;;;;;;;;;;4966985;28;24434;-67
2021/11/23 11:50:08;;;;;;;2.77;2.50;;;;;;;;;;4983025;28;24483;-67
2021/11/23 11:52:53;;;;;;;5.65;3.00;;;;;;;;;;4994021;28;24409;-68
2021/11/23 11:55:23;;;;;;;3.47;3.00;;;;;;;;;;4984100;28;24499;-67
2021/11/23 11:57:49;;;;;;;3.47;2.60;;;;;;;;;;4982042;28;24476;-67
2021/11/23 12:00:34;;;;;;;3.55;2.97;;;;;;;;;;4979669;28;24417;-68
2021/11/23 12:03:08;;;;;;;4.70;2.97;;;;;;;;;;4985476;28;24432;-67
2021/11/23 12:06:05;;;;;;;3.80;2.90;;;;;;;;;;4982007;28;24428;-67
2021/11/23 12:08:35;;;;;;;4.43;3.20;;;;;;;;;;4982398;28;24420;-67
2021/11/23 12:11:01;;;;;;;4.57;2.70;;;;;;;;;;4979558;28;24405;-66
2021/11/23 12:13:35;;;;;;;4.18;3.13;;;;;;;;;;4979037;28;24498;-67
2021/11/23 12:16:09;;;;;;;5.03;3.40;;;;;;;;;;4981421;28;24982;-67
2021/11/23 12:18:37;;;;;;;4.90;2.97;;;;;;;;;;4982061;28;24505;-67
2021/11/23 12:21:09;;;;;;;3.70;3.00;;;;;;;;;;4983578;28;24413;-65
2021/11/23 12:23:55;;;;;;;4.55;2.78;;;;;;;;;;4980707;28;24424;-65
2021/11/23 12:26:22;;;;;;;4.78;2.90;;;;;;;;;;4979371;28;24491;-66
2021/11/23 12:28:52;;;;;;;5.22;3.47;;;;;;;;;;4981853;28;24454;-66
2021/11/23 12:31:17;;;;;;;3.72;2.72;;;;;;;;;;4983099;28;24401;-65
2021/11/23 12:33:44;;;;;;;5.00;3.60;;;;;;;;;;4979465;28;24482;-65
2021/11/23 12:36:14;;;;;;;4.70;3.60;;;;;;;;;;4981968;28;25108;-65
2021/11/23 12:38:40;;;;;;;4.60;3.70;;;;;;;;;;4981495;28;24523;-66
2021/11/23 12:41:13;;;;;;;5.10;4.03;;;;;;;;;;4983060;28;24536;-65
2021/11/23 12:43:38;;;;;;;5.87;3.70;;;;;;;;;;4980956;28;24420;-65
2021/11/23 12:46:10;;;;;;;5.17;4.10;;;;;;;;;;4978810;28;24424;-65
2021/11/23 12:48:37;;;;;;;5.60;4.27;;;;;;;;;;4978886;28;24409;-66
2021/11/23 12:51:35;;;;;;;5.72;3.92;;;;;;;;;;4981120;28;24424;-65
2021/11/23 12:54:02;;;;;;;5.32;4.13;;;;;;;;;;4949571;28;24445;-65
2021/11/23 12:56:48;;;;;;;4.65;4.15;;;;;;;;;;4980741;28;24460;-65
2021/11/23 12:59:25;;;;;;;5.00;4.30;;;;;;;;;;4978423;28;24596;-65
2021/11/23 13:01:51;;;;;;;8.30;5.43;;;;;;;;;;4980446;28;24528;-68
2021/11/23 13:04:16;;;;;;;6.88;5.88;;;;;;;;;;4982721;28;24536;-66
2021/11/23 13:06:41;;;;;;;6.70;5.00;;;;;;;;;;4980800;28;24519;-66
2021/11/23 13:09:07;;;;;;;6.90;5.10;;;;;;;;;;4982733;28;24428;-66
2021/11/23 13:11:33;;;;;;;5.78;5.07;;;;;;;;;;4980320;28;24417;-66
2021/11/23 13:14:08;;;;;;;6.15;4.88;;;;;;;;;;4978897;28;24424;-66
2021/11/23 13:16:43;;;;;;;7.40;6.60;;;;;;;;;;4978678;28;25001;-65
2021/11/23 13:19:08;;;;;;;6.38;5.63;;;;;;;;;;4981904;28;24443;-65
2021/11/23 13:21:33;;;;;;;8.25;6.10;;;;;;;;;;4980160;28;24416;-65
2021/11/23 13:23:58;;;;;;;7.28;6.25;;;;;;;;;;4981667;28;24543;-65
2021/11/23 13:26:27;;;;;;;7.18;6.20;;;;;;;;;;4980146;28;24434;-65
2021/11/23 13:28:59;;;;;;;7.85;6.60;;;;;;;;;;4977646;28;24575;-65
2021/11/23 13:31:25;;;;;;;6.13;5.40;;;;;;;;;;4966435;28;25078;-65
2021/11/23 13:33:56;;;;;;;6.80;5.65;;;;;;;;;;4982218;28;24528;-65
2021/11/23 13:36:28;;;;;;;7.13;6.10;;;;;;;;;;4979463;28;24420;-65
2021/11/23 13:38:54;;;;;;;5.10;4.60;;;;;;;;;;4977457;28;24432;-66
2021/11/23 13:41:21;;;;;;;6.85;6.15;;;;;;;;;;4981518;28;24415;-66
2021/11/23 13:43:46;;;;;;;7.25;6.38;;;;;;;;;;4979903;28;24628;-65
2021/11/23 13:46:12;;;;;;;6.88;6.25;;;;;;;;;;4981811;28;25066;-65
2021/11/23 13:48:37;;;;;;;6.43;5.80;;;;;;;;;;4979213;28;24535;-64
2021/11/23 13:51:04;;;;;;;8.38;6.28;;;;;;;;;;4978757;28;25326;-66
2021/11/23 13:53:49;;;;;;;7.68;6.20;;;;;;;;;;4979719;28;24524;-66
2021/11/23 13:56:15;;;;;;;8.00;7.07;;;;;;;;;;4974987;28;24455;-65
2021/11/23 13:58:50;;;;;;;7.23;6.47;;;;;;;;;;4979387;28;24986;-65
2021/11/23 14:01:16;;;;;;;8.13;6.87;;;;;;;;;;4980585;28;24448;-65
2021/11/23 14:03:41;;;;;;;7.50;6.37;;;;;;;;;;4978939;28;24448;-63
2021/11/23 14:06:07;;;;;;;8.00;7.20;;;;;;;;;;4979225;28;24989;-63
2021/11/23 14:08:34;;;;;;;7.43;6.63;;;;;;;;;;4978997;28;24475;-63
2021/11/23 14:11:04;;;;;;;8.38;7.38;;;;;;;;;;4981897;28;24441;-63
2021/11/23 14:13:32;;;;;;;8.85;6.20;;;;;;;;;;4979328;28;24520;-64
2021/11/23 14:16:03;;;;;;;6.90;6.20;;;;;;;;;;4981681;28;24460;-63
2021/11/23 14:18:29;;;;;;;7.55;6.47;;;;;;;;;;4975914;28;24431;-63
2021/11/23 14:21:00;;;;;;;6.70;6.00;;;;;;;;;;4976860;28;24495;-65
2021/11/23 14:23:40;;;;;;;6.85;6.22;;;;;;;;;;4978732;28;24756;-65
2021/11/23 14:26:13;;;;;;;6.63;5.93;;;;;;;;;;4980919;28;24421;-65
2021/11/23 14:28:40;;;;;;;6.63;6.03;;;;;;;;;;4978400;28;24405;-64
2021/11/23 14:31:06;;;;;;;7.75;6.38;;;;;;;;;;4979956;28;24405;-65
2021/11/23 14:33:32;;;;;;;9.02;6.70;;;;;;;;;;4983036;28;24448;-64
2021/11/23 14:35:57;;;;;;;7.63;6.43;;;;;;;;;;4984455;28;24851;-65
2021/11/23 14:38:23;;;;;;;7.57;6.40;;;;;;;;;;4984360;28;24453;-65
2021/11/23 14:40:49;;;;;;;7.10;6.40;;;;;;;;;;4980228;28;24552;-65